createdAt,value
2019-05-05T00:01:28.754Z,8.50
2019-05-05T00:04:10.854Z,9.03
2019-05-05T00:06:39.259Z,8.30
2019-05-05T00:09:08.340Z,9.60
2019-05-05T00:11:54.765Z,10.40
2019-05-05T00:14:30.993Z,10.60
2019-05-05T00:17:15.905Z,9.37
2019-05-05T00:19:45.435Z,12.40
2019-05-05T00:22:15.155Z,9.00
2019-05-05T00:24:44.397Z,9.87
2019-05-05T00:27:14.925Z,8.63
2019-05-05T00:29:45.151Z,11.40
2019-05-05T00:32:15.354Z,10.30
2019-05-05T00:34:44.463Z,9.77
2019-05-05T00:37:15.248Z,9.53
2019-05-05T00:39:45.210Z,9.27
2019-05-05T00:42:15.418Z,9.27
2019-05-05T00:44:44.729Z,8.77
2019-05-05T00:47:26.841Z,11.80
2019-05-05T00:49:56.298Z,10.67
2019-05-05T00:52:24.927Z,12.77
2019-05-05T00:54:55.442Z,10.17
2019-05-05T00:57:24.319Z,10.70
2019-05-05T00:59:54.409Z,10.93
2019-05-05T01:02:30.314Z,7.50
2019-05-05T01:05:09.480Z,7.47
2019-05-05T01:07:37.883Z,8.67
2019-05-05T01:10:07.331Z,7.93
2019-05-05T01:12:35.723Z,7.23
2019-05-05T01:15:04.925Z,8.00
2019-05-05T01:17:34.501Z,6.83
2019-05-05T01:20:06.993Z,7.60
2019-05-05T01:22:34.791Z,7.90
2019-05-05T01:25:05.430Z,10.17
2019-05-05T01:27:34.729Z,6.73
2019-05-05T01:30:07.973Z,7.37
2019-05-05T01:32:44.625Z,9.33
2019-05-05T01:35:14.415Z,8.37
2019-05-05T01:37:54.831Z,8.60
2019-05-05T01:40:36.855Z,7.23
2019-05-05T01:43:05.428Z,8.53
2019-05-05T01:45:34.785Z,9.43
2019-05-05T01:48:04.871Z,9.33
2019-05-05T01:50:34.941Z,8.30
2019-05-05T01:53:04.752Z,7.30
2019-05-05T01:55:34.690Z,9.00
2019-05-05T01:58:04.747Z,7.07
2019-05-05T02:00:34.756Z,11.87
2019-05-05T02:03:04.505Z,10.70
2019-05-05T02:05:34.859Z,9.77
2019-05-05T02:08:04.949Z,9.43
2019-05-05T02:10:34.926Z,8.40
2019-05-05T02:13:04.682Z,7.47
2019-05-05T02:15:34.361Z,8.07
2019-05-05T02:18:04.487Z,9.07
2019-05-05T02:20:51.578Z,9.83
2019-05-05T02:23:20.126Z,9.77
2019-05-05T02:25:48.610Z,9.30
2019-05-05T02:28:17.000Z,10.53
2019-05-05T02:30:49.515Z,11.23
2019-05-05T02:33:19.750Z,9.53
2019-05-05T02:35:48.244Z,9.37
2019-05-05T02:38:17.991Z,8.40
2019-05-05T02:40:47.226Z,8.93
2019-05-05T02:43:18.078Z,9.00
2019-05-05T02:46:16.223Z,8.67
2019-05-05T02:48:47.070Z,8.67
2019-05-05T02:51:16.612Z,10.57
2019-05-05T02:53:48.191Z,12.03
2019-05-05T02:56:23.738Z,8.60
2019-05-05T02:58:55.127Z,7.90
2019-05-05T03:01:31.270Z,9.73
2019-05-05T03:04:01.314Z,8.87
2019-05-05T03:06:29.783Z,9.07
2019-05-05T03:08:58.938Z,8.87
2019-05-05T03:11:30.183Z,9.53
2019-05-05T03:14:01.530Z,9.83
2019-05-05T03:16:38.407Z,8.07
2019-05-05T03:19:08.651Z,8.57
2019-05-05T03:21:37.417Z,9.33
2019-05-05T03:24:06.902Z,8.13
2019-05-05T03:26:35.939Z,8.50
2019-05-05T03:29:06.724Z,8.67
2019-05-05T03:31:35.444Z,9.50
2019-05-05T03:34:05.968Z,10.03
2019-05-05T03:36:35.170Z,9.20
2019-05-05T03:39:05.725Z,10.37
2019-05-05T03:41:54.300Z,10.10
2019-05-05T03:44:27.468Z,10.43
2019-05-05T03:46:55.861Z,9.43
2019-05-05T03:49:24.821Z,12.63
2019-05-05T03:51:54.310Z,10.73
2019-05-05T03:54:23.884Z,9.10
2019-05-05T03:56:54.533Z,10.93
2019-05-05T03:59:24.337Z,11.30
2019-05-05T04:01:54.663Z,12.53
2019-05-05T04:04:24.759Z,12.00
2019-05-05T04:06:54.549Z,12.17
2019-05-05T04:09:24.242Z,11.47
2019-05-05T04:11:53.931Z,9.33
2019-05-05T04:14:24.763Z,13.80
2019-05-05T04:16:54.684Z,15.50
2019-05-05T04:19:24.781Z,13.53
2019-05-05T04:21:53.671Z,11.90
2019-05-05T04:24:23.877Z,12.33
2019-05-05T04:26:54.468Z,11.57
2019-05-05T04:29:24.354Z,10.93
2019-05-05T04:31:54.028Z,10.20
2019-05-05T04:34:24.116Z,11.37
2019-05-05T04:36:54.618Z,12.93
2019-05-05T04:39:23.642Z,11.63
2019-05-05T04:41:54.347Z,10.70
2019-05-05T04:44:23.624Z,12.00
2019-05-05T04:46:54.626Z,10.43
2019-05-05T04:49:40.042Z,10.97
2019-05-05T04:52:10.085Z,11.17
2019-05-05T04:54:48.845Z,9.40
2019-05-05T04:57:17.262Z,10.53
2019-05-05T04:59:46.716Z,10.57
2019-05-05T05:02:19.641Z,11.93
2019-05-05T05:04:55.410Z,8.30
2019-05-05T05:07:24.282Z,7.97
2019-05-05T05:09:54.037Z,8.67
2019-05-05T05:12:23.682Z,7.30
2019-05-05T05:14:54.488Z,7.60
2019-05-05T05:17:24.862Z,7.93
2019-05-05T05:19:54.229Z,7.50
2019-05-05T05:22:24.295Z,7.13
2019-05-05T05:24:54.120Z,7.20
2019-05-05T05:27:24.494Z,6.90
2019-05-05T05:29:54.353Z,6.70
2019-05-05T05:32:24.765Z,6.90
2019-05-05T05:34:54.315Z,8.40
2019-05-05T05:37:24.036Z,8.33
2019-05-05T05:39:59.555Z,6.90
2019-05-05T05:42:37.570Z,5.87
2019-05-05T05:45:11.642Z,5.73
2019-05-05T05:47:58.740Z,5.40
2019-05-05T05:50:30.463Z,6.47
2019-05-05T05:52:59.282Z,5.83
2019-05-05T05:55:34.169Z,5.37
2019-05-05T06:00:53.839Z,5.00
2019-05-05T06:03:24.405Z,4.40
2019-05-05T06:05:54.040Z,4.47
2019-05-05T06:08:24.471Z,4.53
2019-05-05T06:10:55.125Z,5.73
2019-05-05T06:13:26.989Z,4.30
2019-05-05T06:15:57.574Z,5.17
2019-05-05T06:18:26.013Z,5.53
2019-05-05T06:20:54.414Z,3.97
2019-05-05T06:23:23.976Z,4.27
2019-05-05T06:25:54.870Z,3.70
2019-05-05T06:28:23.649Z,3.97
2019-05-05T06:30:54.435Z,4.40
2019-05-05T06:33:24.166Z,4.20
2019-05-05T06:35:53.555Z,4.67
2019-05-05T06:38:24.225Z,4.47
2019-05-05T06:40:54.412Z,4.03
2019-05-05T06:43:34.844Z,4.53
2019-05-05T06:46:14.611Z,4.30
2019-05-05T06:48:43.869Z,3.97
2019-05-05T06:51:14.077Z,4.07
2019-05-05T06:53:43.525Z,5.33
2019-05-05T06:56:14.648Z,3.50
2019-05-05T06:58:44.823Z,3.63
2019-05-05T07:01:14.306Z,3.93
2019-05-05T07:03:43.815Z,4.63
2019-05-05T07:06:14.160Z,3.40
2019-05-05T07:08:43.880Z,3.40
2019-05-05T07:11:14.362Z,5.90
2019-05-05T07:13:44.342Z,3.87
2019-05-05T07:16:15.023Z,3.27
2019-05-05T07:18:44.606Z,2.83
2019-05-05T07:21:14.223Z,3.67
2019-05-05T07:23:44.593Z,5.03
2019-05-05T07:26:14.384Z,3.47
2019-05-05T07:28:44.713Z,3.60
2019-05-05T07:31:14.334Z,3.47
2019-05-05T07:33:43.796Z,3.43
2019-05-05T07:36:16.759Z,3.43
2019-05-05T07:38:46.800Z,4.13
2019-05-05T07:41:15.206Z,3.57
2019-05-05T07:43:43.816Z,3.10
2019-05-05T07:46:13.545Z,2.93
2019-05-05T07:48:44.060Z,3.47
2019-05-05T07:51:14.165Z,3.37
2019-05-05T07:53:44.204Z,3.90
2019-05-05T07:56:14.498Z,4.30
2019-05-05T07:58:43.909Z,4.13
2019-05-05T08:01:14.157Z,3.10
2019-05-05T08:03:44.610Z,4.90
2019-05-05T08:06:14.535Z,4.00
2019-05-05T08:08:44.323Z,3.53
2019-05-05T08:11:14.780Z,3.00
2019-05-05T08:13:44.299Z,3.87
2019-05-05T08:16:27.029Z,2.60
2019-05-05T08:19:13.805Z,3.27
2019-05-05T08:21:43.726Z,3.67
2019-05-05T08:24:14.059Z,3.47
2019-05-05T08:26:44.345Z,3.63
2019-05-05T08:29:30.496Z,2.70
2019-05-05T08:32:04.434Z,3.20
2019-05-05T08:34:33.945Z,3.60
2019-05-05T08:37:04.355Z,2.63
2019-05-05T08:39:34.417Z,3.33
2019-05-05T08:42:04.300Z,3.83
2019-05-05T08:44:34.256Z,2.67
2019-05-05T08:47:04.419Z,5.03
2019-05-05T08:49:34.743Z,4.07
2019-05-05T08:52:03.999Z,2.80
2019-05-05T08:54:34.364Z,4.63
2019-05-05T08:57:04.257Z,3.67
2019-05-05T08:59:33.691Z,2.80
2019-05-05T09:02:04.346Z,3.27
2019-05-05T09:04:34.035Z,2.97
2019-05-05T09:07:04.842Z,3.10
2019-05-05T09:09:33.496Z,3.13
2019-05-05T09:12:04.268Z,2.20
2019-05-05T09:14:34.421Z,2.63
2019-05-05T09:17:04.260Z,2.80
2019-05-05T09:19:34.405Z,2.67
2019-05-05T09:22:04.874Z,2.40
2019-05-05T09:24:34.374Z,2.13
2019-05-05T09:27:20.670Z,2.40
2019-05-05T09:29:49.073Z,2.30
2019-05-05T09:32:17.480Z,3.67
2019-05-05T09:34:45.902Z,3.53
2019-05-05T09:37:14.488Z,1.87
2019-05-05T09:39:43.697Z,2.00
2019-05-05T09:42:14.298Z,2.07
2019-05-05T09:44:43.773Z,1.87
2019-05-05T09:47:13.670Z,2.60
2019-05-05T09:49:44.365Z,3.70
2019-05-05T09:52:13.978Z,1.83
2019-05-05T09:54:43.835Z,1.90
2019-05-05T09:57:14.440Z,3.67
2019-05-05T09:59:44.197Z,2.80
2019-05-05T10:02:13.118Z,2.20
2019-05-05T10:04:41.581Z,2.02
2019-05-05T10:07:09.978Z,3.22
2019-05-05T10:09:38.397Z,1.87
2019-05-05T10:12:06.870Z,4.17
2019-05-05T10:14:35.282Z,1.65
2019-05-05T10:17:04.860Z,1.67
2019-05-05T10:19:33.526Z,1.42
2019-05-05T10:22:03.889Z,1.30
2019-05-05T10:24:33.973Z,2.22
2019-05-05T10:27:04.699Z,2.20
2019-05-05T10:29:32.782Z,2.25
2019-05-05T10:32:01.258Z,2.22
2019-05-05T10:34:29.666Z,4.62
2019-05-05T10:36:58.064Z,1.73
2019-05-05T10:39:31.086Z,3.07
2019-05-05T10:41:59.486Z,1.67
2019-05-05T10:44:27.895Z,1.60
2019-05-05T10:46:56.292Z,2.63
2019-05-05T10:49:33.685Z,1.90
2019-05-05T10:52:03.667Z,2.17
2019-05-05T10:54:43.330Z,2.27
2019-05-05T10:57:04.018Z,1.87
2019-05-05T10:59:34.354Z,2.83
2019-05-05T11:02:04.959Z,2.80
2019-05-05T11:04:33.576Z,1.93
2019-05-05T11:07:04.235Z,2.20
2019-05-05T11:09:33.703Z,1.80
2019-05-05T11:12:02.360Z,2.93
2019-05-05T11:14:30.786Z,1.80
2019-05-05T11:16:59.201Z,2.23
2019-05-05T11:19:27.590Z,1.80
2019-05-05T11:21:55.994Z,2.30
2019-05-05T11:24:24.435Z,1.73
2019-05-05T11:26:53.982Z,1.57
2019-05-05T11:29:24.049Z,1.63
2019-05-05T11:31:53.002Z,1.53
2019-05-05T11:34:24.640Z,2.27
2019-05-05T11:36:57.744Z,1.40
2019-05-05T11:39:26.243Z,2.07
2019-05-05T11:41:54.849Z,2.17
2019-05-05T11:44:24.301Z,2.60
2019-05-05T11:46:54.731Z,1.47
2019-05-05T11:49:24.452Z,2.80
2019-05-05T11:51:54.165Z,3.17
2019-05-05T11:54:24.551Z,4.87
2019-05-05T11:56:53.935Z,2.07
2019-05-05T11:59:23.778Z,1.70
2019-05-05T12:01:54.684Z,1.77
2019-05-05T12:04:57.210Z,2.53
2019-05-05T12:07:25.856Z,2.67
2019-05-05T12:09:55.686Z,4.53
2019-05-05T12:12:24.214Z,1.90
2019-05-05T12:14:53.874Z,2.83
2019-05-05T12:17:34.869Z,2.07
2019-05-05T12:20:07.769Z,1.97
2019-05-05T12:22:36.182Z,1.57
2019-05-05T12:25:07.067Z,2.60
2019-05-05T12:27:43.053Z,1.57
2019-05-05T12:30:11.632Z,1.43
2019-05-05T12:32:40.049Z,1.67
2019-05-05T12:35:08.700Z,1.23
2019-05-05T12:37:37.175Z,3.33
2019-05-05T12:40:07.881Z,2.30
2019-05-05T12:42:36.295Z,1.57
2019-05-05T12:45:09.332Z,2.20
2019-05-05T12:47:55.641Z,1.47
2019-05-05T12:50:24.656Z,2.43
2019-05-05T12:52:54.872Z,1.77
2019-05-05T12:55:32.265Z,2.27
2019-05-05T12:57:54.106Z,1.70
2019-05-05T13:00:22.865Z,2.37
2019-05-05T13:02:51.284Z,1.37
2019-05-05T13:05:19.729Z,1.33
2019-05-05T13:07:48.141Z,2.00
2019-05-05T13:10:19.457Z,1.93
2019-05-05T13:12:48.166Z,1.43
2019-05-05T13:16:57.744Z,1.77
2019-05-05T13:19:27.859Z,3.87
2019-05-05T13:22:06.981Z,2.20
2019-05-05T13:24:39.712Z,1.83
2019-05-05T13:27:11.606Z,4.23
2019-05-05T13:29:39.890Z,2.23
2019-05-05T13:32:08.293Z,1.63
2019-05-05T13:34:36.702Z,2.30
2019-05-05T13:37:05.185Z,1.67
2019-05-05T13:39:34.077Z,2.97
2019-05-05T13:42:04.498Z,1.60
2019-05-05T13:44:50.941Z,1.67
2019-05-05T13:47:19.418Z,1.90
2019-05-05T13:49:47.996Z,1.63
2019-05-05T13:52:16.396Z,1.83
2019-05-05T13:54:44.810Z,1.60
2019-05-05T13:57:14.420Z,3.37
2019-05-05T13:59:44.461Z,3.07
2019-05-05T14:02:13.781Z,2.63
2019-05-05T14:04:43.805Z,4.10
2019-05-05T14:07:12.877Z,2.07
2019-05-05T14:09:41.337Z,3.20
2019-05-05T14:12:09.750Z,1.53
2019-05-05T14:14:38.152Z,2.20
2019-05-05T14:17:06.552Z,2.40
2019-05-05T14:19:35.792Z,2.50
2019-05-05T14:22:04.567Z,2.87
2019-05-05T14:24:48.521Z,2.60
2019-05-05T14:27:17.008Z,4.53
2019-05-05T14:29:47.053Z,2.73
2019-05-05T14:32:17.088Z,2.83
2019-05-05T14:34:47.154Z,3.00
2019-05-05T14:37:25.262Z,1.57
2019-05-05T14:39:54.504Z,1.63
2019-05-05T14:42:23.617Z,1.90
2019-05-05T14:44:54.369Z,2.43
2019-05-05T14:47:24.301Z,1.67
2019-05-05T14:49:54.060Z,2.57
2019-05-05T14:52:24.691Z,1.67
2019-05-05T14:54:54.389Z,3.13
2019-05-05T14:57:24.809Z,2.30
2019-05-05T14:59:54.012Z,1.63
2019-05-05T15:02:24.268Z,3.50
2019-05-05T15:04:53.951Z,2.10
2019-05-05T15:07:44.338Z,2.90
2019-05-05T15:10:17.463Z,1.10
2019-05-05T15:12:50.473Z,0.70
2019-05-05T15:15:18.869Z,1.70
2019-05-05T15:17:47.290Z,2.73
2019-05-05T15:20:15.882Z,2.43
2019-05-05T15:22:44.290Z,4.43
2019-05-05T15:25:12.788Z,2.53
2019-05-05T15:27:41.282Z,1.40
2019-05-05T15:30:10.155Z,2.23
2019-05-05T15:32:38.558Z,2.40
2019-05-05T15:35:07.201Z,4.63
2019-05-05T15:37:35.606Z,6.93
2019-05-05T15:40:04.877Z,2.00
2019-05-05T15:42:33.547Z,3.13
2019-05-05T15:45:03.838Z,2.00
2019-05-05T15:47:34.095Z,2.07
2019-05-05T15:50:04.302Z,3.23
2019-05-05T15:52:34.713Z,4.87
2019-05-05T15:55:04.524Z,3.07
2019-05-05T15:57:33.540Z,3.37
2019-05-05T16:00:02.659Z,1.77
2019-05-05T16:02:31.074Z,1.97
2019-05-05T16:04:59.518Z,1.47
2019-05-05T16:07:28.018Z,1.93
2019-05-05T16:09:56.479Z,6.60
2019-05-05T16:12:31.977Z,2.30
2019-05-05T16:15:13.834Z,3.40
2019-05-05T16:17:44.322Z,2.97
2019-05-05T16:20:14.697Z,3.93
2019-05-05T16:22:44.755Z,2.87
2019-05-05T16:25:16.514Z,2.23
2019-05-05T16:27:45.009Z,3.43
2019-05-05T16:30:16.185Z,2.30
2019-05-05T16:32:44.596Z,7.47
2019-05-05T16:35:14.462Z,4.80
2019-05-05T16:37:43.139Z,4.13
2019-05-05T16:40:14.452Z,5.43
2019-05-05T16:42:43.747Z,7.97
2019-05-05T16:45:16.493Z,8.93
2019-05-05T16:47:44.717Z,5.93
2019-05-05T16:50:13.636Z,6.63
2019-05-05T16:53:03.761Z,3.10
2019-05-05T16:55:34.493Z,5.50
2019-05-05T16:58:04.060Z,7.13
2019-05-05T17:00:34.513Z,3.87
2019-05-05T17:03:04.181Z,3.80
2019-05-05T17:05:34.483Z,6.63
2019-05-05T17:08:04.530Z,7.23
2019-05-05T17:10:34.280Z,8.53
2019-05-05T17:13:04.459Z,7.30
2019-05-05T17:15:35.427Z,3.17
2019-05-05T17:18:08.145Z,4.03
2019-05-05T17:20:38.270Z,6.37
2019-05-05T17:23:08.321Z,1.10
2019-05-05T17:25:37.090Z,1.20
2019-05-05T17:28:05.500Z,1.53
2019-05-05T17:30:34.213Z,2.30
2019-05-05T17:33:03.822Z,1.30
2019-05-05T17:35:33.671Z,1.22
2019-05-05T17:38:10.025Z,1.30
2019-05-05T17:40:43.422Z,1.90
2019-05-05T17:43:31.599Z,1.00
2019-05-05T17:46:03.861Z,1.93
2019-05-05T17:48:36.593Z,3.13
2019-05-05T17:51:06.954Z,1.40
2019-05-05T17:53:40.071Z,1.87
2019-05-05T17:56:14.389Z,7.40
2019-05-05T17:58:44.483Z,4.30
2019-05-05T18:01:13.054Z,2.37
2019-05-05T18:03:43.543Z,2.70
2019-05-05T18:06:23.617Z,3.03
2019-05-05T18:08:54.069Z,4.37
2019-05-05T18:11:27.181Z,4.33
2019-05-05T18:13:59.917Z,3.00
2019-05-05T18:16:28.898Z,2.10
2019-05-05T18:18:57.362Z,4.13
2019-05-05T18:21:28.752Z,2.70
2019-05-05T18:23:56.015Z,2.27
2019-05-05T18:26:24.450Z,2.10
2019-05-05T18:28:54.067Z,2.73
2019-05-05T18:31:24.284Z,2.00
2019-05-05T18:33:54.316Z,4.93
2019-05-05T18:36:23.046Z,2.70
2019-05-05T18:38:53.672Z,4.37
2019-05-05T18:41:29.346Z,3.93
2019-05-05T18:44:03.824Z,5.37
2019-05-05T18:46:33.895Z,6.67
2019-05-05T18:49:04.254Z,3.43
2019-05-05T18:51:34.613Z,5.10
2019-05-05T18:54:04.189Z,4.70
2019-05-05T18:56:34.602Z,4.47
2019-05-05T18:59:06.231Z,2.50
2019-05-05T19:01:46.742Z,3.80
2019-05-05T19:04:16.794Z,3.10
2019-05-05T19:06:49.550Z,3.90
2019-05-05T19:09:22.134Z,3.10
2019-05-05T19:11:50.554Z,2.57
2019-05-05T19:14:18.970Z,4.10
2019-05-05T19:16:47.402Z,4.03
2019-05-05T19:19:15.868Z,5.17
2019-05-05T19:22:01.062Z,3.70
2019-05-05T19:24:29.692Z,3.73
2019-05-05T19:26:58.085Z,7.00
2019-05-05T19:29:26.496Z,6.60
2019-05-05T19:31:54.897Z,5.83
2019-05-05T19:34:24.054Z,10.27
2019-05-05T19:36:54.502Z,3.47
2019-05-05T19:39:24.265Z,4.00
2019-05-05T19:41:54.387Z,3.80
2019-05-05T19:44:25.891Z,2.97
2019-05-05T19:46:57.522Z,4.10
2019-05-05T19:49:25.930Z,4.80
2019-05-05T19:51:54.346Z,4.07
2019-05-05T19:54:23.021Z,4.13
2019-05-05T19:56:51.427Z,3.00
2019-05-05T19:59:19.825Z,3.57
2019-05-05T20:01:48.226Z,4.77
2019-05-05T20:04:16.652Z,4.63
2019-05-05T20:06:45.065Z,5.17
2019-05-05T20:09:14.104Z,4.00
2019-05-05T20:11:43.781Z,5.40
2019-05-05T20:14:14.865Z,5.27
2019-05-05T20:17:00.689Z,4.83
2019-05-05T20:19:31.039Z,4.83
2019-05-05T20:21:59.434Z,6.47
2019-05-05T20:24:27.866Z,4.47
2019-05-05T20:26:56.283Z,5.07
2019-05-05T20:29:24.689Z,6.60
2019-05-05T20:31:54.810Z,7.17
2019-05-05T20:34:30.893Z,5.27
2019-05-05T20:37:16.150Z,5.50
2019-05-05T20:39:44.566Z,4.03
2019-05-05T20:42:14.935Z,2.90
2019-05-05T20:44:43.779Z,7.73
2019-05-05T20:47:12.446Z,3.70
2019-05-05T20:49:40.906Z,4.53
2019-05-05T20:52:09.322Z,3.60
2019-05-05T20:54:37.730Z,6.47
2019-05-05T20:57:06.139Z,6.33
2019-05-05T20:59:34.542Z,4.53
2019-05-05T21:02:04.429Z,5.23
2019-05-05T21:04:34.511Z,4.10
2019-05-05T21:07:04.402Z,4.80
2019-05-05T21:09:34.517Z,4.40
2019-05-05T21:12:04.811Z,3.83
2019-05-05T21:14:37.259Z,5.83
2019-05-05T21:17:04.151Z,5.57
2019-05-05T21:19:34.610Z,4.27
2019-05-05T21:22:21.280Z,3.33
2019-05-05T21:24:50.044Z,5.40
2019-05-05T21:27:18.448Z,3.60
2019-05-05T21:29:46.845Z,6.00
2019-05-05T21:32:15.259Z,4.67
2019-05-05T21:34:44.399Z,4.53
2019-05-05T21:37:14.178Z,5.03
2019-05-05T21:39:42.850Z,6.90
2019-05-05T21:42:11.251Z,6.83
2019-05-05T21:44:39.641Z,5.80
2019-05-05T21:47:08.091Z,3.77
2019-05-05T21:49:36.486Z,8.43
2019-05-05T21:52:08.143Z,4.53
2019-05-05T21:54:38.444Z,4.90
2019-05-05T21:57:08.490Z,4.33
2019-05-05T21:59:36.888Z,6.53
2019-05-05T22:02:05.835Z,5.07
2019-05-05T22:04:34.270Z,3.30
2019-05-05T22:07:03.714Z,4.00
2019-05-05T22:09:32.377Z,3.13
2019-05-05T22:12:00.781Z,4.27
2019-05-05T22:14:29.248Z,4.33
2019-05-05T22:16:57.652Z,3.80
2019-05-05T22:19:27.705Z,6.00
2019-05-05T22:22:03.950Z,5.40
2019-05-05T22:24:33.404Z,3.80
2019-05-05T22:27:04.573Z,3.40
2019-05-05T22:29:34.217Z,5.63
2019-05-05T22:32:06.017Z,3.23
2019-05-05T22:34:33.510Z,3.07
2019-05-05T22:37:05.404Z,4.20
2019-05-05T22:39:33.822Z,5.27
2019-05-05T22:42:04.572Z,3.43
2019-05-05T22:44:33.857Z,4.90
2019-05-05T22:47:04.468Z,3.67
2019-05-05T22:49:32.665Z,3.13
2019-05-05T22:52:01.062Z,4.23
2019-05-05T22:54:29.467Z,3.87
2019-05-05T22:56:57.868Z,4.10
2019-05-05T22:59:26.274Z,4.63
2019-05-05T23:01:54.737Z,4.87
2019-05-05T23:04:41.015Z,2.83
2019-05-05T23:07:11.054Z,3.63
2019-05-05T23:09:39.466Z,5.00
2019-05-05T23:12:07.849Z,3.43
2019-05-05T23:14:36.252Z,5.67
2019-05-05T23:17:09.312Z,4.30
2019-05-05T23:19:44.130Z,3.70
2019-05-05T23:22:19.614Z,3.50
2019-05-05T23:24:49.657Z,3.37
2019-05-05T23:27:36.278Z,3.60
2019-05-05T23:30:07.959Z,5.37
2019-05-05T23:32:36.350Z,3.57
2019-05-05T23:35:04.997Z,4.90
2019-05-05T23:37:34.346Z,3.57
2019-05-05T23:40:03.788Z,3.10
2019-05-05T23:42:33.687Z,4.73
2019-05-05T23:45:04.257Z,3.27
2019-05-05T23:47:34.363Z,5.73
2019-05-05T23:50:04.486Z,4.30
2019-05-05T23:52:34.829Z,5.40
2019-05-05T23:55:04.012Z,3.93
2019-05-05T23:57:32.553Z,3.90
